ADDS METAR Data INFO
IDs: Format: Raw Decoded Include TAF

Data at: 0339 UTC 19 Jul 2018

KLWM 190254Z AUTO 00000KT 10SM CLR 20/10 A2998 RMK AO2 SLP152 T02000100 51019
KLWM 190154Z 33003KT 10SM CLR 22/09 A2997 RMK AO2 SLP148 T02170094
KLWM 190054Z 34003KT 10SM CLR 22/09 A2995 RMK AO2 SLP140 T02220094
KLWM 182354Z 32004KT 10SM CLR 24/09 A2993 RMK AO2 SLP132 T02440089 10283 20244 53012
KLWM 182254Z 34008KT 10SM CLR 26/08 A2991 RMK AO2 SLP126 T02610083
KLWM 182154Z VRB04KT 10SM CLR 28/09 A2990 RMK AO2 SLP122 T02780094
KLWM 182054Z 35011G16KT 10SM CLR 28/09 A2989 RMK AO2 SLP120 T02780094 53002
KLWM 181954Z 34011G14KT 10SM CLR 28/10 A2989 RMK AO2 SLP119 T02780100
KLWM 181854Z 30010G16KT 10SM CLR 28/12 A2988 RMK AO2 SLP118 T02780117
KLWM 181754Z 33007KT 10SM CLR 27/11 A2988 RMK AO2 SLP118 T02720106 10272 20217 56004
KLWM 181654Z 31009KT 10SM CLR 27/12 A2988 RMK AO2 SLP118 T02670122
KLWM 181554Z 33009KT 10SM CLR 26/14 A2989 RMK AO2 SLP120 T02610139
KLWM 181454Z 33012G19KT 10SM CLR 25/13 A2990 RMK AO2 SLP122 T02500128 51004
KLWM 181354Z 32008KT 10SM CLR 24/15 A2989 RMK AO2 SLP121 T02440150
KLWM 181254Z 33005KT 10SM BKN090 23/16 A2989 RMK AO2 SLP121 T02280161
KLWM 181154Z 35006KT 10SM OVC085 22/16 A2988 RMK AO2 SLP117 70121 T02170161 10228 20211 51020
KLWM 181054Z COR 34008KT 10SM BKN080 22/18 A2987 RMK AO2 SLP112 T02170178
KLWM 180954Z AUTO 34004KT 10SM SCT120 22/18 A2985 RMK AO2 SLP105 T02220183
KLWM 180854Z AUTO 32003KT 10SM BKN110 22/19 A2982 RMK AO2 SLP097 T02220194 53015
KLWM 180754Z AUTO 00000KT 10SM CLR 22/19 A2979 RMK AO2 SLP086 T02220194
KLWM 180654Z AUTO 22003KT 10SM FEW090 22/20 A2980 RMK AO2 SLP090 T02220200
KLWM 180554Z AUTO 22003KT 10SM BKN100 22/20 A2978 RMK AO2 SLP083 60002 T02220200 10228 20222 56004
KLWM 180454Z AUTO 00000KT 10SM BKN110 23/20 A2978 RMK AO2 SLP083 T02280200 403440222
KLWM 180354Z AUTO 27005KT 10SM FEW027 BKN043 BKN110 23/19 A2979 RMK AO2 RAE0256 SLP085 P0000 T02280194
KLWM 180254Z AUTO 22006KT 10SM -RA SCT044 BKN060 OVC070 23/20 A2979 RMK AO2 RAB45 SLP087 P0000 60002 T02280200 58007
KLWM 180154Z 23005KT 10SM SCT006 OVC065 23/20 A2980 RMK AO2 RAB12E51 SLP091 P0002 T02280200
KLWM 180054Z 22004KT 10SM FEW005 SCT009 OVC100 23/20 A2981 RMK AO2 RAB20E30 SLP093 P0000 T02280200
KLWM 180051Z 23004KT 10SM SCT007 OVC100 23/20 A2981 RMK AO2 RAB20E30 P0000
KLWM 172354Z 21006KT 10SM BKN006 BKN017 23/20 A2981 RMK AO2 RAE47 CIG 004V009 SLP094 P0004 60062 T02280200 10233 20228 55002
KLWM 172301Z 18005KT 4SM RA BR BKN006 BKN110 23/21 A2980 RMK AO2 LTG DSNT E AND SE P0003 T02280206
KLWM 172254Z 22007KT 6SM RA SCT006 OVC100 23/20 A2980 RMK AO2 LTG DSNT E AND SE PRESRR SLP089 P0015 T02280200
KLWM 172217Z 13006KT 6SM RA SCT006 OVC100 23/21 A2977 RMK AO2 LTG DSNT ALQDS P0006 T02330206
KLWM 172201Z VRB03KT 6SM VCTS RA SCT006 OVC100 23/21 A2979 RMK AO2 LTG DSNT ALQDS P0002 T02330206
KLWM 172154Z 16006KT 10SM VCTS -RA SCT010 OVC100 23/21 A2979 RMK AO2 LTG DSNT ALQDS TSE2059 SLP086 P0009 T02280206
KLWM 172130Z 12005KT 7SM -RA FEW005 SCT015 BKN110 23/21 A2979 RMK AO2 LTG DSNT ALQDS TSE2059 P0006 T02330206
KLWM 172121Z 13006KT 8SM VCTS -RA FEW018 SCT095 BKN110 23/21 A2981 RMK AO2 LTG DSNT ALQDS TSE2059 P0005 T02280206
KLWM 172112Z 14006KT 6SM -RA BR FEW095 BKN110 23/21 A2981 RMK AO2 LTG DSNT E-SW TSE2059 P0004 T02280206
KLWM 172105Z 14004KT 4SM VCTS RA FEW050 SCT100 BKN110 23/21 A2981 RMK AO2 LTG DSNT ALQDS TSE2059 P0003 T02330206
KLWM 172054Z 15005KT 3SM -TSRA FEW050 SCT075 OVC110 23/21 A2982 RMK AO2 LTG DSNT S-W TSB24E41B42 SLP095 TS SE MVG E P0021 60034 T02330206 55007
KLWM 172032Z 00000KT 1 1/4SM +TSRA BKN050 OVC070 23/21 A2981 RMK AO2 LTG DSNT SW-N TSB24 TS S MOVING E P0019 T02330206
KLWM 172024Z 00000KT 3SM -TSRA BKN060 BKN070 OVC090 23/21 A2982 RMK AO2 LTG DSNT ALQDS TSB24 TS S MOVING E P0015 T02330206
KLWM 172016Z 00000KT 1 1/4SM VCTS +RA BR BKN055 OVC080 23/21 A2982 RMK AO2 LTG DSNT ALQDS TS S MOVING E P0014 T02280206
KLWM 172004Z 00000KT 2 1/2SM VCTS RA BKN055 OVC075 23/21 A2981 RMK AO2 LTG DSNT SW AND NW P0004 T02330206
KLWM 171954Z 00000KT 3SM RA SCT055 BKN075 OVC090 23/21 A2982 RMK AO2 LTG DSNT SW-N SLP095 P0010 T02330206
KLWM 171854Z 27005KT 4SM RA FEW080 OVC100 23/20 A2983 RMK AO2 LTG DSNT S SLP100 P0003 T02330200
KLWM 171825Z 21006KT 10SM -RA BKN100 23/20 A2983 RMK AO2 LTG DSNT ALQDS P0000 T02330200
KLWM 171757Z 21007KT 3SM VCTS -RA SCT041 BKN080 OVC100 23/20 A2983 RMK AO2 LTG DSNT ALQDS P0000 T02330200
KLWM 171754Z 22009KT 1 3/4SM VCTS RA BKN037 BKN055 OVC090 23/20 A2984 RMK AO2 LTG DSNT ALQDS RAB14 TSB08E52 SLP102 P0057 60057 T02330200 10344 20233 53004
KLWM 171738Z 25011G16KT 1SM TSRA BKN031 OVC090 23/21 A2984 RMK AO2 LTG DSNT ALQDS RAB14 TSB08 P0045 T02330206
KLWM 171729Z 24006KT 1/2SM +TSRA BKN022 OVC036 23/21 A2984 RMK AO2 LTG DSNT ALQDS RAB14 TSB08 P0040 T02330206
KLWM 171722Z 29007G23KT 3/4SM +TSRA SCT026 OVC036 23/20 A2986 RMK AO2 LTG DSNT ALQDS RAB14 TSB08 P0019 T02330200
KLWM 171714Z 29015G24KT 7SM -TSRA BKN038 OVC049 26/19 A2985 RMK AO2 LTG DSNT ALQDS RAB14 TSB08 PRESRR P0000 T02560194
KLWM 171654Z 31008G19KT 10SM VCTS BKN040 BKN049 OVC075 29/19 A2980 RMK AO2 LTG DSNT ALQDS SLP089 T02890194
KLWM 171554Z 20014G22KT 10SM FEW040 34/22 A2980 RMK AO2 LTG DSNT N AND NW SLP088 T03390222